sensor_id;sensor_type;location;lat;lon;timestamp;temperature;humidity
68924;DHT22;55961;52.156;20.942;2023-04-24T00:00:38;13.40;55.10
68924;DHT22;55961;52.156;20.942;2023-04-24T00:03:24;13.40;55.00
68924;DHT22;55961;52.156;20.942;2023-04-24T00:05:50;13.40;55.30
68924;DHT22;55961;52.156;20.942;2023-04-24T00:08:17;13.40;55.60
68924;DHT22;55961;52.156;20.942;2023-04-24T00:10:43;13.40;55.90
68924;DHT22;55961;52.156;20.942;2023-04-24T00:13:09;13.30;56.10
68924;DHT22;55961;52.156;20.942;2023-04-24T00:15:35;13.30;56.20
68924;DHT22;55961;52.156;20.942;2023-04-24T00:18:01;13.30;56.20
68924;DHT22;55961;52.156;20.942;2023-04-24T00:20:27;13.20;56.10
68924;DHT22;55961;52.156;20.942;2023-04-24T00:22:58;13.20;56.00
68924;DHT22;55961;52.156;20.942;2023-04-24T00:25:24;13.10;55.90
68924;DHT22;55961;52.156;20.942;2023-04-24T00:27:49;13.10;55.90
68924;DHT22;55961;52.156;20.942;2023-04-24T00:30:16;13.10;55.90
68924;DHT22;55961;52.156;20.942;2023-04-24T00:32:42;13.00;56.10
68924;DHT22;55961;52.156;20.942;2023-04-24T00:35:08;13.00;56.00
68924;DHT22;55961;52.156;20.942;2023-04-24T00:37:34;13.00;56.30
68924;DHT22;55961;52.156;20.942;2023-04-24T00:40:00;12.90;56.50
68924;DHT22;55961;52.156;20.942;2023-04-24T00:42:26;12.90;56.60
68924;DHT22;55961;52.156;20.942;2023-04-24T00:44:53;12.80;56.40
68924;DHT22;55961;52.156;20.942;2023-04-24T00:47:19;12.80;56.40
68924;DHT22;55961;52.156;20.942;2023-04-24T00:49:45;12.80;56.60
68924;DHT22;55961;52.156;20.942;2023-04-24T00:52:11;12.80;57.10
68924;DHT22;55961;52.156;20.942;2023-04-24T00:54:38;12.70;57.20
68924;DHT22;55961;52.156;20.942;2023-04-24T00:57:04;12.70;57.30
68924;DHT22;55961;52.156;20.942;2023-04-24T00:59:31;12.70;57.30
68924;DHT22;55961;52.156;20.942;2023-04-24T01:01:58;12.70;57.50
68924;DHT22;55961;52.156;20.942;2023-04-24T01:04:24;12.70;57.90
68924;DHT22;55961;52.156;20.942;2023-04-24T01:06:50;12.70;58.30
68924;DHT22;55961;52.156;20.942;2023-04-24T01:09:17;12.70;58.40
68924;DHT22;55961;52.156;20.942;2023-04-24T01:11:43;12.60;58.80
68924;DHT22;55961;52.156;20.942;2023-04-24T01:14:09;12.60;58.90
68924;DHT22;55961;52.156;20.942;2023-04-24T01:16:35;12.60;59.10
68924;DHT22;55961;52.156;20.942;2023-04-24T01:19:05;12.60;59.00
68924;DHT22;55961;52.156;20.942;2023-04-24T01:21:35;12.60;59.10
68924;DHT22;55961;52.156;20.942;2023-04-24T01:24:03;12.50;59.20
68924;DHT22;55961;52.156;20.942;2023-04-24T01:26:29;12.50;59.50
68924;DHT22;55961;52.156;20.942;2023-04-24T01:28:56;12.50;59.60
68924;DHT22;55961;52.156;20.942;2023-04-24T01:31:22;12.50;59.80
68924;DHT22;55961;52.156;20.942;2023-04-24T01:33:49;12.50;59.90
68924;DHT22;55961;52.156;20.942;2023-04-24T01:36:16;12.40;59.80
68924;DHT22;55961;52.156;20.942;2023-04-24T01:38:42;12.40;60.00
68924;DHT22;55961;52.156;20.942;2023-04-24T01:41:09;12.40;60.00
68924;DHT22;55961;52.156;20.942;2023-04-24T01:43:36;12.30;60.10
68924;DHT22;55961;52.156;20.942;2023-04-24T01:46:02;12.30;60.00
68924;DHT22;55961;52.156;20.942;2023-04-24T01:48:28;12.30;60.00
68924;DHT22;55961;52.156;20.942;2023-04-24T01:50:56;12.20;60.20
68924;DHT22;55961;52.156;20.942;2023-04-24T01:53:22;12.20;60.40
68924;DHT22;55961;52.156;20.942;2023-04-24T01:55:48;12.20;60.70
68924;DHT22;55961;52.156;20.942;2023-04-24T01:58:14;12.10;61.00
68924;DHT22;55961;52.156;20.942;2023-04-24T02:00:40;12.10;60.80
68924;DHT22;55961;52.156;20.942;2023-04-24T02:03:06;12.00;60.90
68924;DHT22;55961;52.156;20.942;2023-04-24T02:05:32;12.00;61.10
68924;DHT22;55961;52.156;20.942;2023-04-24T02:07:58;12.00;61.00
68924;DHT22;55961;52.156;20.942;2023-04-24T02:10:25;11.90;61.10
68924;DHT22;55961;52.156;20.942;2023-04-24T02:12:52;11.90;61.10
68924;DHT22;55961;52.156;20.942;2023-04-24T02:15:17;11.90;61.00
68924;DHT22;55961;52.156;20.942;2023-04-24T02:17:43;11.80;61.00
68924;DHT22;55961;52.156;20.942;2023-04-24T02:20:09;11.80;61.10
68924;DHT22;55961;52.156;20.942;2023-04-24T02:22:36;11.80;60.90
68924;DHT22;55961;52.156;20.942;2023-04-24T02:25:02;11.70;60.90
68924;DHT22;55961;52.156;20.942;2023-04-24T02:27:28;11.70;60.90
68924;DHT22;55961;52.156;20.942;2023-04-24T02:29:54;11.60;60.90
68924;DHT22;55961;52.156;20.942;2023-04-24T02:32:21;11.60;61.00
68924;DHT22;55961;52.156;20.942;2023-04-24T02:34:46;11.60;61.00
68924;DHT22;55961;52.156;20.942;2023-04-24T02:37:12;11.60;61.10
68924;DHT22;55961;52.156;20.942;2023-04-24T02:39:38;11.50;61.10
68924;DHT22;55961;52.156;20.942;2023-04-24T02:42:04;11.50;61.70
68924;DHT22;55961;52.156;20.942;2023-04-24T02:44:30;11.50;61.80
68924;DHT22;55961;52.156;20.942;2023-04-24T02:46:57;11.50;61.90
68924;DHT22;55961;52.156;20.942;2023-04-24T02:49:22;11.40;61.90
68924;DHT22;55961;52.156;20.942;2023-04-24T02:51:48;11.40;61.80
68924;DHT22;55961;52.156;20.942;2023-04-24T02:54:14;11.40;62.20
68924;DHT22;55961;52.156;20.942;2023-04-24T02:56:40;11.40;62.40
68924;DHT22;55961;52.156;20.942;2023-04-24T02:59:06;11.30;62.60
68924;DHT22;55961;52.156;20.942;2023-04-24T03:01:32;11.30;62.50
68924;DHT22;55961;52.156;20.942;2023-04-24T03:03:58;11.30;62.50
68924;DHT22;55961;52.156;20.942;2023-04-24T03:06:24;11.30;62.60
68924;DHT22;55961;52.156;20.942;2023-04-24T03:08:50;11.30;62.60
68924;DHT22;55961;52.156;20.942;2023-04-24T03:11:16;11.30;62.60
68924;DHT22;55961;52.156;20.942;2023-04-24T03:13:41;11.20;63.00
68924;DHT22;55961;52.156;20.942;2023-04-24T03:16:07;11.20;63.10
68924;DHT22;55961;52.156;20.942;2023-04-24T03:18:33;11.20;63.20
68924;DHT22;55961;52.156;20.942;2023-04-24T03:21:00;11.20;63.20
68924;DHT22;55961;52.156;20.942;2023-04-24T03:23:26;11.10;62.90
68924;DHT22;55961;52.156;20.942;2023-04-24T03:25:52;11.10;63.00
68924;DHT22;55961;52.156;20.942;2023-04-24T03:28:18;11.10;63.20
68924;DHT22;55961;52.156;20.942;2023-04-24T03:30:45;11.10;63.00
68924;DHT22;55961;52.156;20.942;2023-04-24T03:33:11;11.10;62.90
68924;DHT22;55961;52.156;20.942;2023-04-24T03:35:37;11.10;62.80
68924;DHT22;55961;52.156;20.942;2023-04-24T03:38:03;11.10;62.60
68924;DHT22;55961;52.156;20.942;2023-04-24T03:40:30;11.10;62.50
68924;DHT22;55961;52.156;20.942;2023-04-24T03:42:56;11.10;62.40
68924;DHT22;55961;52.156;20.942;2023-04-24T03:45:22;11.10;62.60
68924;DHT22;55961;52.156;20.942;2023-04-24T03:47:48;11.00;62.60
68924;DHT22;55961;52.156;20.942;2023-04-24T03:50:14;11.00;62.50
68924;DHT22;55961;52.156;20.942;2023-04-24T03:52:40;11.10;62.50
68924;DHT22;55961;52.156;20.942;2023-04-24T03:55:06;11.10;62.50
68924;DHT22;55961;52.156;20.942;2023-04-24T03:57:32;11.10;62.60
68924;DHT22;55961;52.156;20.942;2023-04-24T03:59:58;11.10;62.70
68924;DHT22;55961;52.156;20.942;2023-04-24T04:02:24;11.10;62.80
68924;DHT22;55961;52.156;20.942;2023-04-24T04:04:50;11.10;62.60
68924;DHT22;55961;52.156;20.942;2023-04-24T04:07:16;11.10;62.70
68924;DHT22;55961;52.156;20.942;2023-04-24T04:09:43;11.20;62.70
68924;DHT22;55961;52.156;20.942;2023-04-24T04:12:08;11.10;62.60
68924;DHT22;55961;52.156;20.942;2023-04-24T04:14:34;11.20;62.50
68924;DHT22;55961;52.156;20.942;2023-04-24T04:17:00;11.10;62.70
68924;DHT22;55961;52.156;20.942;2023-04-24T04:19:26;11.20;62.60
68924;DHT22;55961;52.156;20.942;2023-04-24T04:21:52;11.20;62.70
68924;DHT22;55961;52.156;20.942;2023-04-24T04:24:19;11.20;62.60
68924;DHT22;55961;52.156;20.942;2023-04-24T04:26:50;11.20;62.60
68924;DHT22;55961;52.156;20.942;2023-04-24T04:29:18;11.20;62.70
68924;DHT22;55961;52.156;20.942;2023-04-24T04:31:48;11.30;62.50
68924;DHT22;55961;52.156;20.942;2023-04-24T04:34:14;11.30;62.60
68924;DHT22;55961;52.156;20.942;2023-04-24T04:36:41;11.30;62.50
68924;DHT22;55961;52.156;20.942;2023-04-24T04:39:07;11.30;62.50
68924;DHT22;55961;52.156;20.942;2023-04-24T04:41:33;11.40;62.50
68924;DHT22;55961;52.156;20.942;2023-04-24T04:44:01;11.40;62.50
68924;DHT22;55961;52.156;20.942;2023-04-24T04:46:30;11.40;62.50
68924;DHT22;55961;52.156;20.942;2023-04-24T04:48:59;11.50;62.70
68924;DHT22;55961;52.156;20.942;2023-04-24T04:51:25;11.60;62.60
68924;DHT22;55961;52.156;20.942;2023-04-24T04:53:51;11.70;62.20
68924;DHT22;55961;52.156;20.942;2023-04-24T04:56:17;11.70;61.70
68924;DHT22;55961;52.156;20.942;2023-04-24T04:58:43;11.80;61.50
68924;DHT22;55961;52.156;20.942;2023-04-24T05:01:08;11.90;61.40
68924;DHT22;55961;52.156;20.942;2023-04-24T05:03:34;11.90;61.10
68924;DHT22;55961;52.156;20.942;2023-04-24T05:06:01;12.00;61.00
68924;DHT22;55961;52.156;20.942;2023-04-24T05:08:28;12.10;60.80
68924;DHT22;55961;52.156;20.942;2023-04-24T05:10:54;12.10;60.40
68924;DHT22;55961;52.156;20.942;2023-04-24T05:13:21;12.20;60.30
68924;DHT22;55961;52.156;20.942;2023-04-24T05:15:46;12.30;60.10
68924;DHT22;55961;52.156;20.942;2023-04-24T05:18:12;12.40;60.00
68924;DHT22;55961;52.156;20.942;2023-04-24T05:20:38;12.50;59.90
68924;DHT22;55961;52.156;20.942;2023-04-24T05:23:04;12.50;59.50
68924;DHT22;55961;52.156;20.942;2023-04-24T05:25:30;12.70;59.60
68924;DHT22;55961;52.156;20.942;2023-04-24T05:28:01;12.80;59.60
68924;DHT22;55961;52.156;20.942;2023-04-24T05:30:27;12.90;59.40
68924;DHT22;55961;52.156;20.942;2023-04-24T05:32:54;13.00;58.80
68924;DHT22;55961;52.156;20.942;2023-04-24T05:35:19;13.10;58.60
68924;DHT22;55961;52.156;20.942;2023-04-24T05:37:46;13.30;59.10
68924;DHT22;55961;52.156;20.942;2023-04-24T05:40:11;13.40;58.80
68924;DHT22;55961;52.156;20.942;2023-04-24T05:42:37;13.50;58.50
68924;DHT22;55961;52.156;20.942;2023-04-24T05:45:04;13.70;58.10
68924;DHT22;55961;52.156;20.942;2023-04-24T05:47:30;13.80;57.50
68924;DHT22;55961;52.156;20.942;2023-04-24T05:49:56;13.90;57.50
68924;DHT22;55961;52.156;20.942;2023-04-24T05:52:22;14.00;57.20
68924;DHT22;55961;52.156;20.942;2023-04-24T05:54:48;14.20;56.80
68924;DHT22;55961;52.156;20.942;2023-04-24T05:57:14;14.30;56.50
68924;DHT22;55961;52.156;20.942;2023-04-24T05:59:40;14.50;56.10
68924;DHT22;55961;52.156;20.942;2023-04-24T06:02:07;14.60;56.20
68924;DHT22;55961;52.156;20.942;2023-04-24T06:04:33;14.70;55.90
68924;DHT22;55961;52.156;20.942;2023-04-24T06:06:59;14.90;55.50
68924;DHT22;55961;52.156;20.942;2023-04-24T06:09:25;15.00;55.20
68924;DHT22;55961;52.156;20.942;2023-04-24T06:11:51;15.10;55.00
68924;DHT22;55961;52.156;20.942;2023-04-24T06:14:22;15.20;55.00
68924;DHT22;55961;52.156;20.942;2023-04-24T06:16:48;15.40;55.00
68924;DHT22;55961;52.156;20.942;2023-04-24T06:19:13;15.50;54.30
68924;DHT22;55961;52.156;20.942;2023-04-24T06:21:39;15.60;54.00
68924;DHT22;55961;52.156;20.942;2023-04-24T06:24:05;15.80;53.80
68924;DHT22;55961;52.156;20.942;2023-04-24T06:26:31;15.90;53.30
68924;DHT22;55961;52.156;20.942;2023-04-24T06:28:57;16.00;53.20
68924;DHT22;55961;52.156;20.942;2023-04-24T06:31:24;16.20;53.30
68924;DHT22;55961;52.156;20.942;2023-04-24T06:33:50;16.30;53.40
68924;DHT22;55961;52.156;20.942;2023-04-24T06:36:17;16.40;52.90
68924;DHT22;55961;52.156;20.942;2023-04-24T06:38:42;16.60;52.40
68924;DHT22;55961;52.156;20.942;2023-04-24T06:41:09;16.70;52.40
68924;DHT22;55961;52.156;20.942;2023-04-24T06:43:35;16.90;52.50
68924;DHT22;55961;52.156;20.942;2023-04-24T06:46:01;17.00;51.90
68924;DHT22;55961;52.156;20.942;2023-04-24T06:48:29;17.20;51.70
68924;DHT22;55961;52.156;20.942;2023-04-24T06:50:55;17.40;51.90
68924;DHT22;55961;52.156;20.942;2023-04-24T06:53:21;17.50;50.70
68924;DHT22;55961;52.156;20.942;2023-04-24T06:55:47;17.70;50.00
68924;DHT22;55961;52.156;20.942;2023-04-24T06:58:13;17.80;50.30
68924;DHT22;55961;52.156;20.942;2023-04-24T07:00:40;17.90;50.30
68924;DHT22;55961;52.156;20.942;2023-04-24T07:03:05;18.00;49.50
68924;DHT22;55961;52.156;20.942;2023-04-24T07:05:32;18.20;49.50
68924;DHT22;55961;52.156;20.942;2023-04-24T07:07:59;18.30;49.10
68924;DHT22;55961;52.156;20.942;2023-04-24T07:10:26;18.50;49.10
68924;DHT22;55961;52.156;20.942;2023-04-24T07:12:54;18.60;48.40
68924;DHT22;55961;52.156;20.942;2023-04-24T07:15:21;18.60;48.10
68924;DHT22;55961;52.156;20.942;2023-04-24T07:17:47;18.60;47.90
68924;DHT22;55961;52.156;20.942;2023-04-24T07:20:13;18.70;47.70
68924;DHT22;55961;52.156;20.942;2023-04-24T07:22:40;18.70;47.90
68924;DHT22;55961;52.156;20.942;2023-04-24T07:25:07;18.70;47.70
68924;DHT22;55961;52.156;20.942;2023-04-24T07:27:34;18.70;48.20
68924;DHT22;55961;52.156;20.942;2023-04-24T07:30:00;18.70;48.50
68924;DHT22;55961;52.156;20.942;2023-04-24T07:32:26;18.70;48.10
68924;DHT22;55961;52.156;20.942;2023-04-24T07:34:52;18.70;48.10
68924;DHT22;55961;52.156;20.942;2023-04-24T07:37:18;18.80;47.60
68924;DHT22;55961;52.156;20.942;2023-04-24T07:39:45;18.80;48.00
68924;DHT22;55961;52.156;20.942;2023-04-24T07:42:10;18.80;48.60
68924;DHT22;55961;52.156;20.942;2023-04-24T07:44:36;18.80;49.00
68924;DHT22;55961;52.156;20.942;2023-04-24T07:47:02;18.80;48.70
68924;DHT22;55961;52.156;20.942;2023-04-24T07:49:28;18.70;49.00
68924;DHT22;55961;52.156;20.942;2023-04-24T07:51:54;18.70;49.40
68924;DHT22;55961;52.156;20.942;2023-04-24T07:54:20;18.70;50.00
68924;DHT22;55961;52.156;20.942;2023-04-24T07:56:46;18.70;49.90
68924;DHT22;55961;52.156;20.942;2023-04-24T07:59:12;18.70;49.60
68924;DHT22;55961;52.156;20.942;2023-04-24T08:01:38;18.70;49.10
68924;DHT22;55961;52.156;20.942;2023-04-24T08:04:04;18.70;49.20
68924;DHT22;55961;52.156;20.942;2023-04-24T08:06:30;18.70;49.60
68924;DHT22;55961;52.156;20.942;2023-04-24T08:08:58;18.70;50.10
68924;DHT22;55961;52.156;20.942;2023-04-24T08:11:24;18.70;49.90
68924;DHT22;55961;52.156;20.942;2023-04-24T08:13:51;18.70;49.90
68924;DHT22;55961;52.156;20.942;2023-04-24T08:16:17;18.70;49.50
68924;DHT22;55961;52.156;20.942;2023-04-24T08:18:43;18.80;48.70
68924;DHT22;55961;52.156;20.942;2023-04-24T08:21:08;18.90;48.70
68924;DHT22;55961;52.156;20.942;2023-04-24T08:23:34;18.90;49.40
68924;DHT22;55961;52.156;20.942;2023-04-24T08:26:00;19.00;50.10
68924;DHT22;55961;52.156;20.942;2023-04-24T08:28:26;19.10;50.10
68924;DHT22;55961;52.156;20.942;2023-04-24T08:30:52;19.20;49.90
68924;DHT22;55961;52.156;20.942;2023-04-24T08:33:24;19.20;49.90
68924;DHT22;55961;52.156;20.942;2023-04-24T08:35:50;19.30;49.70
68924;DHT22;55961;52.156;20.942;2023-04-24T08:38:16;19.40;50.00
68924;DHT22;55961;52.156;20.942;2023-04-24T08:40:42;19.50;50.00
68924;DHT22;55961;52.156;20.942;2023-04-24T08:43:09;19.70;50.00
68924;DHT22;55961;52.156;20.942;2023-04-24T08:45:36;19.80;49.40
68924;DHT22;55961;52.156;20.942;2023-04-24T08:48:02;20.00;49.40
68924;DHT22;55961;52.156;20.942;2023-04-24T08:50:29;20.10;49.50
68924;DHT22;55961;52.156;20.942;2023-04-24T08:52:57;20.20;49.10
68924;DHT22;55961;52.156;20.942;2023-04-24T08:55:24;20.20;49.20
68924;DHT22;55961;52.156;20.942;2023-04-24T08:57:52;20.30;49.00
68924;DHT22;55961;52.156;20.942;2023-04-24T09:00:20;20.40;48.80
68924;DHT22;55961;52.156;20.942;2023-04-24T09:02:48;20.40;49.30
68924;DHT22;55961;52.156;20.942;2023-04-24T09:05:16;20.50;48.40
68924;DHT22;55961;52.156;20.942;2023-04-24T09:07:45;20.50;47.70
68924;DHT22;55961;52.156;20.942;2023-04-24T09:10:13;20.60;48.10
68924;DHT22;55961;52.156;20.942;2023-04-24T09:12:39;20.60;47.90
68924;DHT22;55961;52.156;20.942;2023-04-24T09:15:07;20.60;47.40
68924;DHT22;55961;52.156;20.942;2023-04-24T09:17:33;20.70;47.20
68924;DHT22;55961;52.156;20.942;2023-04-24T09:20:00;20.80;46.80
68924;DHT22;55961;52.156;20.942;2023-04-24T09:22:29;20.90;45.10
68924;DHT22;55961;52.156;20.942;2023-04-24T09:25:06;21.00;44.90
68924;DHT22;55961;52.156;20.942;2023-04-24T09:27:33;21.20;43.00
68924;DHT22;55961;52.156;20.942;2023-04-24T09:30:00;21.30;43.70
68924;DHT22;55961;52.156;20.942;2023-04-24T09:32:27;21.50;42.60
68924;DHT22;55961;52.156;20.942;2023-04-24T09:35:11;21.70;42.20
68924;DHT22;55961;52.156;20.942;2023-04-24T09:37:47;21.90;42.10
68924;DHT22;55961;52.156;20.942;2023-04-24T09:40:19;22.10;41.90
68924;DHT22;55961;52.156;20.942;2023-04-24T09:42:55;22.40;41.00
68924;DHT22;55961;52.156;20.942;2023-04-24T09:45:27;22.60;40.70
68924;DHT22;55961;52.156;20.942;2023-04-24T09:47:53;22.90;40.60
68924;DHT22;55961;52.156;20.942;2023-04-24T09:50:22;23.10;40.30
68924;DHT22;55961;52.156;20.942;2023-04-24T09:53:01;23.30;39.40
68924;DHT22;55961;52.156;20.942;2023-04-24T09:55:27;23.50;39.50
68924;DHT22;55961;52.156;20.942;2023-04-24T09:57:55;23.80;38.80
68924;DHT22;55961;52.156;20.942;2023-04-24T10:00:25;24.10;38.90
68924;DHT22;55961;52.156;20.942;2023-04-24T10:03:00;24.30;39.50
68924;DHT22;55961;52.156;20.942;2023-04-24T10:05:28;24.60;39.10
68924;DHT22;55961;52.156;20.942;2023-04-24T10:10:27;25.00;37.10
68924;DHT22;55961;52.156;20.942;2023-04-24T10:12:54;25.10;37.00
68924;DHT22;55961;52.156;20.942;2023-04-24T10:15:21;25.30;37.20
68924;DHT22;55961;52.156;20.942;2023-04-24T10:17:51;25.50;37.50
68924;DHT22;55961;52.156;20.942;2023-04-24T10:20:22;25.70;37.00
68924;DHT22;55961;52.156;20.942;2023-04-24T10:22:50;25.90;37.20
68924;DHT22;55961;52.156;20.942;2023-04-24T10:25:20;26.10;37.00
68924;DHT22;55961;52.156;20.942;2023-04-24T10:27:47;26.10;36.10
68924;DHT22;55961;52.156;20.942;2023-04-24T10:30:14;26.10;35.90
68924;DHT22;55961;52.156;20.942;2023-04-24T10:32:40;26.10;36.70
68924;DHT22;55961;52.156;20.942;2023-04-24T10:35:07;26.10;36.60
68924;DHT22;55961;52.156;20.942;2023-04-24T10:38:30;26.10;36.40
68924;DHT22;55961;52.156;20.942;2023-04-24T10:41:06;26.20;36.40
68924;DHT22;55961;52.156;20.942;2023-04-24T10:43:33;26.30;35.40
68924;DHT22;55961;52.156;20.942;2023-04-24T10:46:04;26.40;35.60
68924;DHT22;55961;52.156;20.942;2023-04-24T10:48:31;26.40;35.90
68924;DHT22;55961;52.156;20.942;2023-04-24T10:50:58;26.60;34.80
68924;DHT22;55961;52.156;20.942;2023-04-24T10:53:28;26.60;34.60
68924;DHT22;55961;52.156;20.942;2023-04-24T10:58:26;26.60;32.90
68924;DHT22;55961;52.156;20.942;2023-04-24T11:01:01;26.50;33.20
68924;DHT22;55961;52.156;20.942;2023-04-24T11:03:29;26.50;33.50
68924;DHT22;55961;52.156;20.942;2023-04-24T11:06:04;26.60;33.30
68924;DHT22;55961;52.156;20.942;2023-04-24T11:08:41;26.60;33.40
68924;DHT22;55961;52.156;20.942;2023-04-24T11:11:09;26.60;33.60
68924;DHT22;55961;52.156;20.942;2023-04-24T11:21:54;26.80;33.60
68924;DHT22;55961;52.156;20.942;2023-04-24T11:24:32;26.90;33.70
68924;DHT22;55961;52.156;20.942;2023-04-24T11:26:59;26.90;33.70
68924;DHT22;55961;52.156;20.942;2023-04-24T11:29:41;27.00;33.90
68924;DHT22;55961;52.156;20.942;2023-04-24T11:32:29;26.90;33.90
68924;DHT22;55961;52.156;20.942;2023-04-24T11:37:27;27.00;33.50
68924;DHT22;55961;52.156;20.942;2023-04-24T11:39:58;27.00;33.20
68924;DHT22;55961;52.156;20.942;2023-04-24T11:42:24;27.20;32.90
68924;DHT22;55961;52.156;20.942;2023-04-24T11:44:54;27.30;32.70
68924;DHT22;55961;52.156;20.942;2023-04-24T11:47:30;27.40;32.20
68924;DHT22;55961;52.156;20.942;2023-04-24T11:49:59;27.50;32.00
68924;DHT22;55961;52.156;20.942;2023-04-24T11:52:26;27.60;31.60
68924;DHT22;55961;52.156;20.942;2023-04-24T11:54:51;27.70;31.70
68924;DHT22;55961;52.156;20.942;2023-04-24T11:57:22;27.70;32.00
68924;DHT22;55961;52.156;20.942;2023-04-24T11:59:49;27.80;31.80
68924;DHT22;55961;52.156;20.942;2023-04-24T12:02:25;27.80;31.60
68924;DHT22;55961;52.156;20.942;2023-04-24T12:04:55;27.90;31.50
68924;DHT22;55961;52.156;20.942;2023-04-24T12:07:23;28.00;31.70
68924;DHT22;55961;52.156;20.942;2023-04-24T12:09:59;28.10;30.70
68924;DHT22;55961;52.156;20.942;2023-04-24T12:12:27;28.00;30.90
68924;DHT22;55961;52.156;20.942;2023-04-24T12:14:55;28.10;31.50
68924;DHT22;55961;52.156;20.942;2023-04-24T12:17:31;28.00;31.20
68924;DHT22;55961;52.156;20.942;2023-04-24T12:20:05;27.90;31.10
68924;DHT22;55961;52.156;20.942;2023-04-24T12:22:49;27.60;31.80
68924;DHT22;55961;52.156;20.942;2023-04-24T12:25:17;27.30;31.00
68924;DHT22;55961;52.156;20.942;2023-04-24T12:27:45;27.10;31.40
68924;DHT22;55961;52.156;20.942;2023-04-24T12:30:13;26.80;32.10
68924;DHT22;55961;52.156;20.942;2023-04-24T12:32:47;26.60;31.90
68924;DHT22;55961;52.156;20.942;2023-04-24T12:35:18;26.40;32.10
68924;DHT22;55961;52.156;20.942;2023-04-24T12:37:45;26.10;33.70
68924;DHT22;55961;52.156;20.942;2023-04-24T12:40:12;25.60;34.10
68924;DHT22;55961;52.156;20.942;2023-04-24T12:42:57;25.00;34.30
68924;DHT22;55961;52.156;20.942;2023-04-24T12:45:22;24.50;35.00
68924;DHT22;55961;52.156;20.942;2023-04-24T12:47:51;23.90;35.90
68924;DHT22;55961;52.156;20.942;2023-04-24T12:50:17;23.40;36.80
68924;DHT22;55961;52.156;20.942;2023-04-24T12:52:43;23.10;37.70
68924;DHT22;55961;52.156;20.942;2023-04-24T12:55:09;22.80;37.80
68924;DHT22;55961;52.156;20.942;2023-04-24T12:57:37;22.60;38.40
68924;DHT22;55961;52.156;20.942;2023-04-24T13:00:04;22.40;38.50
68924;DHT22;55961;52.156;20.942;2023-04-24T13:02:30;22.30;38.10
68924;DHT22;55961;52.156;20.942;2023-04-24T13:04:57;22.10;39.00
68924;DHT22;55961;52.156;20.942;2023-04-24T13:07:24;22.00;39.20
68924;DHT22;55961;52.156;20.942;2023-04-24T13:09:51;21.90;39.20
68924;DHT22;55961;52.156;20.942;2023-04-24T13:12:18;21.80;38.70
68924;DHT22;55961;52.156;20.942;2023-04-24T13:14:44;21.80;39.00
68924;DHT22;55961;52.156;20.942;2023-04-24T13:17:11;21.80;39.30
68924;DHT22;55961;52.156;20.942;2023-04-24T13:19:39;21.80;38.60
68924;DHT22;55961;52.156;20.942;2023-04-24T13:22:06;21.80;38.40
68924;DHT22;55961;52.156;20.942;2023-04-24T13:24:32;21.80;38.80
68924;DHT22;55961;52.156;20.942;2023-04-24T13:26:59;21.90;37.80
68924;DHT22;55961;52.156;20.942;2023-04-24T13:29:25;22.00;37.30
68924;DHT22;55961;52.156;20.942;2023-04-24T13:31:51;22.00;37.00
68924;DHT22;55961;52.156;20.942;2023-04-24T13:34:19;22.00;37.60
68924;DHT22;55961;52.156;20.942;2023-04-24T13:36:45;22.10;37.30
68924;DHT22;55961;52.156;20.942;2023-04-24T13:39:11;22.10;36.60
68924;DHT22;55961;52.156;20.942;2023-04-24T13:41:37;22.20;37.10
68924;DHT22;55961;52.156;20.942;2023-04-24T13:44:06;22.30;37.10
68924;DHT22;55961;52.156;20.942;2023-04-24T13:46:32;22.40;37.10
68924;DHT22;55961;52.156;20.942;2023-04-24T13:48:59;22.50;36.90
68924;DHT22;55961;52.156;20.942;2023-04-24T13:51:26;22.50;36.80
68924;DHT22;55961;52.156;20.942;2023-04-24T13:53:54;22.50;36.40
68924;DHT22;55961;52.156;20.942;2023-04-24T13:56:21;22.40;36.00
68924;DHT22;55961;52.156;20.942;2023-04-24T13:58:48;22.40;36.50
68924;DHT22;55961;52.156;20.942;2023-04-24T14:01:14;22.40;36.90
68924;DHT22;55961;52.156;20.942;2023-04-24T14:03:41;22.30;37.40
68924;DHT22;55961;52.156;20.942;2023-04-24T14:06:09;22.30;37.70
68924;DHT22;55961;52.156;20.942;2023-04-24T14:08:35;22.40;37.20
68924;DHT22;55961;52.156;20.942;2023-04-24T14:11:01;22.30;37.00
68924;DHT22;55961;52.156;20.942;2023-04-24T14:13:27;22.30;36.90
68924;DHT22;55961;52.156;20.942;2023-04-24T14:15:53;22.30;36.70
68924;DHT22;55961;52.156;20.942;2023-04-24T14:18:19;22.30;36.20
68924;DHT22;55961;52.156;20.942;2023-04-24T14:20:46;22.30;36.10
68924;DHT22;55961;52.156;20.942;2023-04-24T14:23:11;22.30;36.50
68924;DHT22;55961;52.156;20.942;2023-04-24T14:25:37;22.40;36.30
68924;DHT22;55961;52.156;20.942;2023-04-24T14:28:03;22.40;35.80
68924;DHT22;55961;52.156;20.942;2023-04-24T14:30:29;22.50;35.40
68924;DHT22;55961;52.156;20.942;2023-04-24T14:32:56;22.50;35.30
68924;DHT22;55961;52.156;20.942;2023-04-24T14:35:22;22.60;34.60
68924;DHT22;55961;52.156;20.942;2023-04-24T14:37:47;22.80;34.00
68924;DHT22;55961;52.156;20.942;2023-04-24T14:40:14;22.90;33.90
68924;DHT22;55961;52.156;20.942;2023-04-24T14:42:40;23.00;33.40
68924;DHT22;55961;52.156;20.942;2023-04-24T14:45:07;23.10;33.90
68924;DHT22;55961;52.156;20.942;2023-04-24T14:47:33;23.20;33.80
68924;DHT22;55961;52.156;20.942;2023-04-24T14:49:59;23.40;33.40
68924;DHT22;55961;52.156;20.942;2023-04-24T14:52:25;23.50;32.70
68924;DHT22;55961;52.156;20.942;2023-04-24T14:54:51;23.70;32.40
68924;DHT22;55961;52.156;20.942;2023-04-24T14:57:17;23.80;32.20
68924;DHT22;55961;52.156;20.942;2023-04-24T14:59:43;24.00;33.00
68924;DHT22;55961;52.156;20.942;2023-04-24T15:02:09;24.20;32.70
68924;DHT22;55961;52.156;20.942;2023-04-24T15:04:35;24.30;31.90
68924;DHT22;55961;52.156;20.942;2023-04-24T15:07:01;24.30;31.60
68924;DHT22;55961;52.156;20.942;2023-04-24T15:09:27;24.40;31.50
68924;DHT22;55961;52.156;20.942;2023-04-24T15:11:53;24.40;31.90
68924;DHT22;55961;52.156;20.942;2023-04-24T15:14:19;24.30;31.80
68924;DHT22;55961;52.156;20.942;2023-04-24T15:16:45;24.30;31.60
68924;DHT22;55961;52.156;20.942;2023-04-24T15:19:11;24.30;31.20
68924;DHT22;55961;52.156;20.942;2023-04-24T15:21:37;24.20;31.80
68924;DHT22;55961;52.156;20.942;2023-04-24T15:24:06;24.10;32.00
68924;DHT22;55961;52.156;20.942;2023-04-24T15:26:32;24.10;32.10
68924;DHT22;55961;52.156;20.942;2023-04-24T15:28:58;24.10;32.20
68924;DHT22;55961;52.156;20.942;2023-04-24T15:31:24;24.10;32.50